Terminal Aerodrome Forecast
Issued by NWS Wakefield, VA

Home | Current Version | Previous Version | Text Only | Print | Product List | Glossary On
Versions: 1 2 3 4 5 6 7 8 9 10 11 12 13 14 15 16 17 18 19 20 21 22 23
000
FTUS41 KAKQ 201600 AAB
TAFECG
TAF AMD
KECG 201631Z 2017/2112 03023G30KT 2SM -RA BR SCT017 OVC035
      TEMPO 2017/2019 1SM -RA BR OVC015
     FM202200 03017KT P6SM -RA OVC050=

USA.gov is the U.S. government's official web portal to all federal, state and local government web resources and services.